createdAt,value
2023-04-10T00:00:38.408Z,100472.75
2023-04-10T00:03:08.925Z,100471.09
2023-04-10T00:05:42.415Z,100475.16
2023-04-10T00:08:12.258Z,100473.09
2023-04-10T00:10:43.556Z,100469.38
2023-04-10T00:13:17.122Z,100473.84
2023-04-10T00:15:49.904Z,100469.59
2023-04-10T00:18:22.373Z,100469.97
2023-04-10T00:20:54.725Z,100470.69
2023-04-10T00:23:24.644Z,100471.81
2023-04-10T00:25:55.108Z,100483.66
2023-04-10T00:28:24.396Z,100479.41
2023-04-10T00:30:55.373Z,100479.22
2023-04-10T00:33:25.064Z,100476.47
2023-04-10T00:35:54.779Z,100476.84
2023-04-10T00:38:24.555Z,100483.69
2023-04-10T00:40:54.071Z,100483.31
2023-04-10T00:43:24.505Z,100492.88
2023-04-10T00:45:55.705Z,100494.38
2023-04-10T00:48:26.055Z,100486.25
2023-04-10T00:50:57.028Z,100485.34
2023-04-10T00:53:26.178Z,100488.09
2023-04-10T00:56:00.853Z,100488.09
2023-04-10T00:58:30.586Z,100484.44
2023-04-10T01:01:05.059Z,100473.88
2023-04-10T01:03:37.344Z,100482.53
2023-04-10T01:06:27.173Z,100479.22
2023-04-10T01:09:02.201Z,100475.53
2023-04-10T01:11:51.399Z,100472.22
2023-04-10T01:14:33.986Z,100479.56
2023-04-10T01:17:09.158Z,100473.50
2023-04-10T01:20:01.147Z,100477.75
2023-04-10T01:22:36.473Z,100480.72
2023-04-10T01:25:27.301Z,100472.59
2023-04-10T01:28:17.609Z,100477.00
2023-04-10T01:30:50.074Z,100478.66
2023-04-10T01:33:21.947Z,100483.84
2023-04-10T01:35:57.234Z,100479.94
2023-04-10T01:38:28.451Z,100487.69
2023-04-10T01:41:02.914Z,100475.84
2023-04-10T01:43:36.211Z,100479.53
2023-04-10T01:46:08.071Z,100476.56
2023-04-10T01:48:39.886Z,100476.19
2023-04-10T01:51:10.878Z,100473.25
2023-04-10T01:53:42.534Z,100472.53
2023-04-10T01:56:12.382Z,100478.06
2023-04-10T01:58:48.223Z,100476.06
2023-04-10T02:01:29.740Z,100470.28
2023-04-10T02:04:01.055Z,100467.41
2023-04-10T02:06:43.624Z,100467.56
2023-04-10T02:09:19.500Z,100464.06
2023-04-10T02:11:59.051Z,100472.75
2023-04-10T02:14:35.060Z,100468.72
2023-04-10T02:17:11.696Z,100466.50
2023-04-10T02:19:42.675Z,100470.91
2023-04-10T02:22:17.130Z,100464.66
2023-04-10T02:24:46.688Z,100465.75
2023-04-10T02:27:16.102Z,100463.16
2023-04-10T02:29:48.313Z,100467.78
2023-04-10T02:32:20.323Z,100459.28
2023-04-10T02:34:52.392Z,100468.72
2023-04-10T02:37:22.129Z,100476.44
2023-04-10T02:39:52.869Z,100477.00
2023-04-10T02:42:24.579Z,100470.94
2023-04-10T02:44:56.153Z,100468.34
2023-04-10T02:47:27.289Z,100482.38
2023-04-10T02:49:57.186Z,100489.22
2023-04-10T02:52:32.575Z,100491.06
2023-04-10T02:55:01.856Z,100479.06
2023-04-10T02:57:36.656Z,100488.25
2023-04-10T03:00:06.720Z,100478.44
2023-04-10T03:02:58.712Z,100482.81
2023-04-10T03:05:35.003Z,100483.34
2023-04-10T03:08:04.171Z,100475.41
2023-04-10T03:10:34.919Z,100475.00
2023-04-10T03:13:13.744Z,100489.97
2023-04-10T03:15:52.858Z,100485.13
2023-04-10T03:18:25.434Z,100482.34
2023-04-10T03:20:56.722Z,100479.91
2023-04-10T03:23:27.031Z,100480.19
2023-04-10T03:25:57.194Z,100473.09
2023-04-10T03:28:31.231Z,100474.84
2023-04-10T03:31:02.029Z,100482.34
2023-04-10T03:33:39.626Z,100479.53
2023-04-10T03:36:10.630Z,100479.31
2023-04-10T03:38:45.070Z,100482.94
2023-04-10T03:41:14.487Z,100481.03
2023-04-10T03:43:43.930Z,100474.53
2023-04-10T03:46:17.605Z,100469.13
2023-04-10T03:48:49.801Z,100473.06
2023-04-10T03:51:20.095Z,100475.88
2023-04-10T03:53:49.426Z,100473.91
2023-04-10T03:56:21.203Z,100475.09
2023-04-10T03:58:50.523Z,100471.34
2023-04-10T04:01:21.376Z,100475.38
2023-04-10T04:04:03.835Z,100474.19
2023-04-10T04:06:52.422Z,100479.47
2023-04-10T04:09:51.606Z,100483.50
2023-04-10T04:12:28.422Z,100480.47
2023-04-10T04:15:28.184Z,100492.34
2023-04-10T04:18:15.805Z,100489.09
2023-04-10T04:20:52.489Z,100484.81
2023-04-10T04:23:45.154Z,100482.47
2023-04-10T04:26:38.601Z,100490.56
2023-04-10T04:29:26.755Z,100488.78
2023-04-10T04:32:13.774Z,100484.72
2023-04-10T04:35:15.545Z,100493.00
2023-04-10T04:38:02.660Z,100488.16
2023-04-10T04:40:55.094Z,100491.31
2023-04-10T04:43:47.604Z,100493.53
2023-04-10T04:46:39.453Z,100487.16
2023-04-10T04:49:26.825Z,100482.31
2023-04-10T04:52:17.046Z,100484.53
2023-04-10T04:55:10.255Z,100485.41
2023-04-10T04:57:59.235Z,100489.63
2023-04-10T05:00:48.071Z,100484.16
2023-04-10T05:03:44.530Z,100472.19
2023-04-10T05:06:33.092Z,100485.75
2023-04-10T05:09:21.147Z,100479.06
2023-04-10T05:12:18.599Z,100480.97
2023-04-10T05:15:02.562Z,100477.31
2023-04-10T05:18:05.460Z,100485.53
2023-04-10T05:20:57.849Z,100484.16
2023-04-10T05:23:47.251Z,100487.09
2023-04-10T05:26:37.311Z,100492.84
2023-04-10T05:29:28.517Z,100489.09
2023-04-10T05:32:23.052Z,100492.56
2023-04-10T05:35:08.990Z,100484.63
2023-04-10T05:37:55.995Z,100485.44
2023-04-10T05:40:33.999Z,100485.53
2023-04-10T05:43:32.452Z,100487.16
2023-04-10T05:46:26.123Z,100490.78
2023-04-10T05:49:15.864Z,100491.00
2023-04-10T05:52:12.406Z,100497.81
2023-04-10T05:55:07.707Z,100493.31
2023-04-10T05:58:03.310Z,100494.75
2023-04-10T06:01:18.612Z,100489.47
2023-04-10T06:03:57.849Z,100493.66
2023-04-10T06:06:27.660Z,100492.34
2023-04-10T06:08:57.996Z,100493.84
2023-04-10T06:11:28.249Z,100495.13
2023-04-10T06:14:17.323Z,100492.59
2023-04-10T06:16:47.920Z,100492.34
2023-04-10T06:19:19.169Z,100498.69
2023-04-10T06:21:48.361Z,100497.91
2023-04-10T06:24:17.808Z,100493.16
2023-04-10T06:26:50.096Z,100490.03
2023-04-10T06:29:19.622Z,100492.47
2023-04-10T06:31:48.979Z,100493.09
2023-04-10T06:34:20.880Z,100495.53
2023-04-10T06:37:01.329Z,100489.22
2023-04-10T06:39:31.002Z,100485.75
2023-04-10T06:42:00.560Z,100488.06
2023-04-10T06:45:06.124Z,100493.00
2023-04-10T06:47:38.475Z,100492.72
2023-04-10T06:50:09.452Z,100496.47
2023-04-10T06:52:38.597Z,100495.94
2023-04-10T06:55:08.840Z,100505.16
2023-04-10T06:57:37.866Z,100503.50
2023-04-10T07:00:08.232Z,100501.78
2023-04-10T07:02:37.612Z,100510.59
2023-04-10T07:05:09.003Z,100502.06
2023-04-10T07:07:38.096Z,100506.78
2023-04-10T07:10:08.371Z,100501.25
2023-04-10T07:12:37.532Z,100502.59
2023-04-10T07:15:08.223Z,100505.44
2023-04-10T07:17:37.475Z,100504.25
2023-04-10T07:20:09.564Z,100505.97
2023-04-10T07:22:40.972Z,100500.63
2023-04-10T07:25:10.821Z,100500.03
2023-04-10T07:27:41.353Z,100490.88
2023-04-10T07:30:12.978Z,100498.25
2023-04-10T07:32:43.308Z,100495.88
2023-04-10T07:35:14.401Z,100502.44
2023-04-10T07:37:44.304Z,100492.63
2023-04-10T07:40:13.741Z,100484.41
2023-04-10T07:42:42.768Z,100483.47
2023-04-10T07:45:18.221Z,100496.97
2023-04-10T07:47:47.314Z,100493.19
2023-04-10T07:50:18.392Z,100492.94
2023-04-10T07:52:48.148Z,100480.44
2023-04-10T07:55:17.319Z,100488.25
2023-04-10T07:57:46.824Z,100488.72
2023-04-10T08:00:17.761Z,100488.13
2023-04-10T08:02:46.883Z,100484.34
2023-04-10T08:05:19.434Z,100472.59
2023-04-10T08:07:48.642Z,100483.91
2023-04-10T08:10:17.818Z,100483.03
2023-04-10T08:12:47.886Z,100479.19
2023-04-10T08:15:16.897Z,100486.09
2023-04-10T08:17:46.132Z,100477.50
2023-04-10T08:20:15.594Z,100468.31
2023-04-10T08:22:48.775Z,100479.44
2023-04-10T08:25:18.357Z,100475.69
2023-04-10T08:27:50.258Z,100473.22
2023-04-10T08:30:23.019Z,100476.97
2023-04-10T08:32:53.257Z,100471.22
2023-04-10T08:35:22.677Z,100463.47
2023-04-10T08:38:07.785Z,100471.69
2023-04-10T08:40:42.930Z,100463.50
2023-04-10T08:43:14.438Z,100465.38
2023-04-10T08:45:43.860Z,100461.63
2023-04-10T08:48:15.207Z,100456.38
2023-04-10T08:50:52.627Z,100455.38
2023-04-10T08:53:31.035Z,100458.09
2023-04-10T08:56:02.835Z,100457.84
2023-04-10T08:58:33.312Z,100450.34
2023-04-10T09:01:03.747Z,100454.47
2023-04-10T09:03:33.592Z,100452.09
2023-04-10T09:06:07.683Z,100448.16
2023-04-10T09:08:38.384Z,100448.44
2023-04-10T09:11:08.156Z,100443.91
2023-04-10T09:13:39.877Z,100441.72
2023-04-10T09:16:13.051Z,100450.59
2023-04-10T09:18:48.035Z,100441.00
2023-04-10T09:21:20.101Z,100443.72
2023-04-10T09:23:51.027Z,100447.34
2023-04-10T09:26:28.829Z,100439.47
2023-04-10T09:29:18.202Z,100436.47
2023-04-10T09:31:47.829Z,100442.16
2023-04-10T09:34:18.932Z,100435.75
2023-04-10T09:36:56.742Z,100432.94
2023-04-10T09:39:35.778Z,100428.16
2023-04-10T09:42:05.192Z,100429.19
2023-04-10T09:44:36.795Z,100433.84
2023-04-10T09:47:19.183Z,100426.94
2023-04-10T09:49:49.713Z,100436.16
2023-04-10T09:52:25.793Z,100428.31
2023-04-10T09:55:03.018Z,100426.88
2023-04-10T09:57:34.196Z,100421.22
2023-04-10T10:00:05.482Z,100422.28
2023-04-10T10:02:40.194Z,100416.66
2023-04-10T10:05:30.788Z,100422.63
2023-04-10T10:08:00.117Z,100421.53
2023-04-10T10:11:09.777Z,100417.19
2023-04-10T10:13:46.194Z,100419.16
2023-04-10T10:16:20.625Z,100415.88
2023-04-10T10:18:57.335Z,100417.84
2023-04-10T10:21:28.433Z,100410.41
2023-04-10T10:24:00.596Z,100409.34
2023-04-10T10:26:34.895Z,100400.41
2023-04-10T10:29:06.902Z,100406.88
2023-04-10T10:31:40.111Z,100412.03
2023-04-10T10:34:17.190Z,100397.00
2023-04-10T10:37:29.307Z,100400.56
2023-04-10T10:44:47.325Z,100400.66
2023-04-10T10:47:20.519Z,100400.22
2023-04-10T10:50:00.636Z,100395.03
2023-04-10T10:52:47.283Z,100394.44
2023-04-10T10:55:37.952Z,100394.03
2023-04-10T10:58:09.011Z,100395.41
2023-04-10T11:01:10.955Z,100397.47
2023-04-10T11:03:44.942Z,100397.81
2023-04-10T11:06:20.284Z,100390.13
2023-04-10T11:08:54.021Z,100397.00
2023-04-10T11:11:25.395Z,100397.25
2023-04-10T11:14:24.318Z,100396.84
2023-04-10T11:16:56.156Z,100386.16
2023-04-10T11:19:26.471Z,100396.41
2023-04-10T11:22:10.974Z,100389.13
2023-04-10T11:25:10.533Z,100394.09
2023-04-10T11:27:46.482Z,100394.25
2023-04-10T11:30:32.016Z,100395.91
2023-04-10T11:33:05.177Z,100389.88
2023-04-10T11:35:34.813Z,100395.78
2023-04-10T11:38:11.596Z,100395.53
2023-04-10T11:41:10.782Z,100408.75
2023-04-10T11:43:40.056Z,100405.84
2023-04-10T11:46:09.488Z,100438.72
2023-04-10T11:48:40.229Z,100442.97
2023-04-10T11:51:14.591Z,100435.47
2023-04-10T11:53:44.087Z,100447.22
2023-04-10T11:56:22.154Z,100436.84
2023-04-10T11:58:54.643Z,100452.66
2023-04-10T12:01:24.699Z,100451.94
2023-04-10T12:03:55.836Z,100448.16
2023-04-10T12:06:26.482Z,100448.34
2023-04-10T12:09:17.603Z,100442.19
2023-04-10T12:11:53.941Z,100457.66
2023-04-10T12:14:23.804Z,100462.78
2023-04-10T12:17:12.008Z,100465.72
2023-04-10T12:20:00.541Z,100479.69
2023-04-10T12:22:29.726Z,100484.41
2023-04-10T12:24:59.812Z,100476.47
2023-04-10T12:27:29.987Z,100483.00
2023-04-10T12:30:00.394Z,100491.28
2023-04-10T12:32:29.509Z,100488.56
2023-04-10T12:35:01.593Z,100501.94
2023-04-10T12:38:08.069Z,100505.88
2023-04-10T12:40:38.581Z,100517.28
2023-04-10T12:43:07.540Z,100506.91
2023-04-10T12:45:46.422Z,100499.56
2023-04-10T12:48:24.470Z,100496.88
2023-04-10T12:50:55.226Z,100506.41
2023-04-10T12:53:25.153Z,100495.56
2023-04-10T12:56:03.234Z,100496.88
2023-04-10T12:58:32.883Z,100502.28
2023-04-10T13:01:20.515Z,100503.69
2023-04-10T13:03:49.736Z,100507.81
2023-04-10T13:06:20.235Z,100507.47
2023-04-10T13:09:04.098Z,100504.88
2023-04-10T13:11:33.120Z,100502.69
2023-04-10T13:14:02.095Z,100508.47
2023-04-10T13:16:31.154Z,100506.28
2023-04-10T13:19:00.285Z,100502.78
2023-04-10T13:21:31.100Z,100506.47
2023-04-10T13:24:00.135Z,100502.69
2023-04-10T13:26:46.710Z,100496.00
2023-04-10T13:29:15.796Z,100479.31
2023-04-10T13:31:44.853Z,100475.03
2023-04-10T13:34:13.986Z,100474.78
2023-04-10T13:36:44.629Z,100459.22
2023-04-10T13:39:13.697Z,100466.00
2023-04-10T13:41:42.727Z,100467.59
2023-04-10T13:44:11.643Z,100465.25
2023-04-10T13:46:40.802Z,100453.72
2023-04-10T13:49:09.982Z,100460.47
2023-04-10T13:51:39.093Z,100457.28
2023-04-10T13:54:10.816Z,100452.91
2023-04-10T13:56:39.885Z,100448.88
2023-04-10T13:59:27.622Z,100442.72
2023-04-10T14:01:56.870Z,100441.66
2023-04-10T14:04:25.900Z,100430.16
2023-04-10T14:06:57.959Z,100436.81
2023-04-10T14:09:28.584Z,100424.63
2023-04-10T14:11:58.016Z,100415.03
2023-04-10T14:14:27.035Z,100406.47
2023-04-10T14:16:56.125Z,100412.16
2023-04-10T14:19:25.235Z,100401.91
2023-04-10T14:21:54.230Z,100396.84
2023-04-10T14:24:23.243Z,100393.19
2023-04-10T14:26:58.182Z,100399.47
2023-04-10T14:29:36.374Z,100391.38
2023-04-10T14:32:28.381Z,100383.72
2023-04-10T14:34:57.592Z,100385.09
2023-04-10T14:37:26.546Z,100384.50
2023-04-10T14:39:55.729Z,100383.44
2023-04-10T14:42:27.056Z,100380.66
2023-04-10T14:44:55.994Z,100374.72
2023-04-10T14:47:24.970Z,100379.16
2023-04-10T14:49:53.961Z,100373.03
2023-04-10T14:52:23.088Z,100365.09
2023-04-10T14:54:52.214Z,100365.25
2023-04-10T14:57:21.325Z,100361.13
2023-04-10T14:59:51.701Z,100365.25
2023-04-10T15:02:21.273Z,100363.00
2023-04-10T15:04:50.577Z,100352.84
2023-04-10T15:07:19.585Z,100351.03
2023-04-10T15:09:49.324Z,100356.69
2023-04-10T15:12:21.032Z,100354.22
2023-04-10T15:14:51.688Z,100352.09
2023-04-10T15:17:23.555Z,100352.09
2023-04-10T15:19:53.206Z,100350.06
2023-04-10T15:22:22.338Z,100347.47
2023-04-10T15:24:51.432Z,100347.59
2023-04-10T15:27:21.416Z,100340.53
2023-04-10T15:29:52.094Z,100352.59
2023-04-10T15:32:21.463Z,100347.53
2023-04-10T15:34:50.562Z,100345.22
2023-04-10T15:37:19.521Z,100338.00
2023-04-10T15:39:48.873Z,100339.97
2023-04-10T15:42:18.273Z,100337.47
2023-04-10T15:44:49.126Z,100339.59
2023-04-10T15:47:19.792Z,100331.94
2023-04-10T15:49:48.791Z,100338.16
2023-04-10T15:52:17.820Z,100331.44
2023-04-10T15:54:47.157Z,100342.50
2023-04-10T15:57:16.276Z,100343.91
2023-04-10T15:59:45.418Z,100342.88
2023-04-10T16:02:14.631Z,100351.94
2023-04-10T16:04:45.409Z,100349.09
2023-04-10T16:07:14.593Z,100350.88
2023-04-10T16:09:43.630Z,100346.53
2023-04-10T16:12:12.827Z,100350.81
2023-04-10T16:14:41.789Z,100346.44
2023-04-10T16:17:11.110Z,100339.91
2023-04-10T16:19:40.161Z,100336.50
2023-04-10T16:22:10.783Z,100339.50
2023-04-10T16:24:39.849Z,100341.75
2023-04-10T16:27:08.849Z,100343.00
2023-04-10T16:29:37.950Z,100339.72
2023-04-10T16:32:07.316Z,100345.31
2023-04-10T16:34:36.830Z,100345.03
2023-04-10T16:37:06.099Z,100343.28
2023-04-10T16:39:36.652Z,100334.84
2023-04-10T16:42:05.809Z,100335.75
2023-04-10T16:44:34.903Z,100339.69
2023-04-10T16:47:04.120Z,100340.09
2023-04-10T16:49:33.330Z,100338.41
2023-04-10T16:52:02.367Z,100348.66
2023-04-10T16:54:31.394Z,100344.81
2023-04-10T16:57:02.151Z,100343.13
2023-04-10T16:59:31.349Z,100344.00
2023-04-10T17:02:00.485Z,100338.56
2023-04-10T17:04:30.112Z,100342.16
2023-04-10T17:06:59.351Z,100341.97
2023-04-10T17:09:28.436Z,100340.50
2023-04-10T17:11:57.930Z,100340.09
2023-04-10T17:14:28.611Z,100344.34
2023-04-10T17:16:57.643Z,100339.06
2023-04-10T17:19:26.853Z,100344.09
2023-04-10T17:21:56.237Z,100344.09
2023-04-10T17:24:25.668Z,100336.25
2023-04-10T17:26:56.881Z,100335.94
2023-04-10T17:29:27.266Z,100342.72
2023-04-10T17:31:56.491Z,100335.66
2023-04-10T17:34:25.567Z,100341.31
2023-04-10T17:36:54.598Z,100337.56
2023-04-10T17:39:25.204Z,100337.34
2023-04-10T17:41:54.350Z,100334.31
2023-04-10T17:44:23.466Z,100330.28
2023-04-10T17:46:54.591Z,100331.88
2023-04-10T17:49:23.938Z,100333.47
2023-04-10T17:51:53.747Z,100334.03
2023-04-10T17:54:22.781Z,100335.97
2023-04-10T17:56:53.963Z,100330.00
2023-04-10T17:59:22.893Z,100337.44
2023-04-10T18:01:53.485Z,100332.91
2023-04-10T18:04:22.749Z,100331.09
2023-04-10T18:06:51.836Z,100326.38
2023-04-10T18:09:20.893Z,100326.44
2023-04-10T18:11:50.924Z,100323.88
2023-04-10T18:14:21.242Z,100326.44
2023-04-10T18:16:50.789Z,100320.47
2023-04-10T18:19:21.365Z,100320.53
2023-04-10T18:22:07.828Z,100322.44
2023-04-10T18:24:37.352Z,100314.69
2023-04-10T18:27:06.921Z,100318.34
2023-04-10T18:29:35.963Z,100317.41
2023-04-10T18:32:05.117Z,100313.50
2023-04-10T18:34:36.093Z,100312.94
2023-04-10T18:37:06.006Z,100322.13
2023-04-10T18:39:38.371Z,100322.13
2023-04-10T18:42:25.855Z,100325.34
2023-04-10T18:44:55.211Z,100316.25
2023-04-10T18:47:24.568Z,100315.84
2023-04-10T18:49:55.096Z,100321.03
2023-04-10T18:52:24.247Z,100318.31
2023-04-10T18:54:53.830Z,100317.38
2023-04-10T18:57:22.933Z,100319.81
2023-04-10T18:59:52.345Z,100315.91
2023-04-10T19:02:21.744Z,100313.38
2023-04-10T19:04:51.005Z,100323.31
2023-04-10T19:07:21.518Z,100312.72
2023-04-10T19:09:50.604Z,100320.66
2023-04-10T19:12:19.933Z,100316.56
2023-04-10T19:14:49.110Z,100319.25
2023-04-10T19:17:18.128Z,100309.22
2023-04-10T19:19:47.556Z,100299.91
2023-04-10T19:22:17.375Z,100309.00
2023-04-10T19:24:47.882Z,100305.06
2023-04-10T19:27:16.952Z,100302.69
2023-04-10T19:29:45.963Z,100299.34
2023-04-10T19:32:15.007Z,100302.47
2023-04-10T19:34:44.091Z,100302.47
2023-04-10T19:37:13.129Z,100313.28
2023-04-10T19:39:42.225Z,100301.34
2023-04-10T19:42:12.990Z,100303.34
2023-04-10T19:44:42.612Z,100301.06
2023-04-10T19:47:11.845Z,100296.81
2023-04-10T19:49:40.892Z,100294.16
2023-04-10T19:52:10.207Z,100298.94
2023-04-10T19:54:39.309Z,100297.09
2023-04-10T19:57:08.349Z,100292.41
2023-04-10T19:59:39.006Z,100295.69
2023-04-10T20:02:09.276Z,100290.19
2023-04-10T20:04:38.780Z,100281.84
2023-04-10T20:07:08.172Z,100287.25
2023-04-10T20:09:37.308Z,100287.00
2023-04-10T20:12:06.982Z,100283.50
2023-04-10T20:14:39.139Z,100285.69
2023-04-10T20:17:08.207Z,100288.34
2023-04-10T20:19:37.313Z,100279.03
2023-04-10T20:22:06.276Z,100288.19
2023-04-10T20:24:35.318Z,100286.59
2023-04-10T20:27:04.458Z,100288.22
2023-04-10T20:29:33.583Z,100287.50
2023-04-10T20:32:07.063Z,100288.31
2023-04-10T20:34:37.240Z,100289.59
2023-04-10T20:37:06.592Z,100287.09
2023-04-10T20:39:37.745Z,100291.69
2023-04-10T20:42:08.750Z,100290.06
2023-04-10T20:44:38.795Z,100290.72
2023-04-10T20:47:09.378Z,100296.03
2023-04-10T20:49:38.660Z,100297.28
2023-04-10T20:52:08.174Z,100295.00
2023-04-10T20:54:37.167Z,100294.81
2023-04-10T20:57:06.278Z,100297.44
2023-04-10T20:59:36.140Z,100301.16
2023-04-10T21:02:05.847Z,100292.38
2023-04-10T21:04:36.379Z,100286.19
2023-04-10T21:07:05.457Z,100295.78
2023-04-10T21:09:34.404Z,100290.25
2023-04-10T21:12:03.777Z,100299.56
2023-04-10T21:14:36.638Z,100302.38
2023-04-10T21:17:05.683Z,100296.28
2023-04-10T21:19:36.054Z,100297.16
2023-04-10T21:22:05.171Z,100292.28
2023-04-10T21:24:34.496Z,100287.78
2023-04-10T21:27:04.043Z,100296.09
2023-04-10T21:29:33.101Z,100288.63
2023-04-10T21:32:02.336Z,100286.59
2023-04-10T21:34:31.808Z,100280.66
2023-04-10T21:37:02.193Z,100277.97
2023-04-10T21:39:31.311Z,100289.44
2023-04-10T21:42:00.404Z,100285.78
2023-04-10T21:44:29.423Z,100285.59
2023-04-10T21:46:58.513Z,100282.84
2023-04-10T21:49:27.704Z,100287.31
2023-04-10T21:52:06.894Z,100289.63
2023-04-10T21:54:35.958Z,100292.03
2023-04-10T21:57:05.084Z,100288.38
2023-04-10T21:59:34.161Z,100290.41
2023-04-10T22:02:03.313Z,100289.00
2023-04-10T22:04:34.706Z,100287.22
2023-04-10T22:07:06.933Z,100291.13
2023-04-10T22:09:36.045Z,100288.38
2023-04-10T22:12:05.143Z,100287.97
2023-04-10T22:14:38.748Z,100290.00
2023-04-10T22:17:08.067Z,100286.47
2023-04-10T22:19:37.290Z,100280.59
2023-04-10T22:22:07.644Z,100287.59
2023-04-10T22:24:36.654Z,100279.06
2023-04-10T22:27:05.621Z,100279.06
2023-04-10T22:29:35.866Z,100278.72
2023-04-10T22:32:05.077Z,100279.47
2023-04-10T22:34:35.220Z,100267.31
2023-04-10T22:37:04.252Z,100275.81
2023-04-10T22:39:34.625Z,100267.66
2023-04-10T22:42:04.898Z,100264.50
2023-04-10T22:44:33.999Z,100277.00
2023-04-10T22:47:03.096Z,100268.84
2023-04-10T22:49:32.265Z,100266.06
2023-04-10T22:52:01.370Z,100260.66
2023-04-10T22:54:30.380Z,100263.38
2023-04-10T22:57:06.019Z,100253.16
2023-04-10T22:59:36.638Z,100254.00
2023-04-10T23:02:06.587Z,100253.44
2023-04-10T23:04:35.806Z,100247.34
2023-04-10T23:07:04.768Z,100245.91
2023-04-10T23:09:33.796Z,100249.66
2023-04-10T23:12:04.193Z,100244.13
2023-04-10T23:14:36.029Z,100247.81
2023-04-10T23:17:04.980Z,100250.50
2023-04-10T23:19:34.065Z,100246.53
2023-04-10T23:22:03.158Z,100242.72
2023-04-10T23:24:36.514Z,100242.25
2023-04-10T23:27:08.308Z,100242.81
2023-04-10T23:29:39.261Z,100246.69
2023-04-10T23:32:08.614Z,100247.28
2023-04-10T23:34:37.928Z,100251.63
2023-04-10T23:37:06.871Z,100241.44
2023-04-10T23:39:35.896Z,100241.75
2023-04-10T23:42:06.568Z,100251.28
2023-04-10T23:44:35.573Z,100234.50
2023-04-10T23:47:04.621Z,100243.44
2023-04-10T23:49:37.984Z,100251.34
2023-04-10T23:52:07.144Z,100248.91
2023-04-10T23:54:36.269Z,100241.97
2023-04-10T23:57:07.645Z,100239.28
2023-04-10T23:59:36.683Z,100237.31
